Time;durP1;ratioP1;P1;durP2;ratioP2;P2;SDS_P1;SDS_P2;PMS_P1;PMS_P2;Temp;Humidity;BMP_temperature;BMP_pressure;BME280_temperature;BME280_humidity;BME280_pressure;Samples;Min_cycle;Max_cycle;Signal;HPM_P1;HPM_P2
2024/02/11 00:02:26;;;;;;;33.40;18.10;;;;;;;8.70;84.76;96631.01;226709;1269;24237;-77
2024/02/11 00:07:32;;;;;;;30.60;16.90;;;;;;;8.74;84.90;96627.37;226658;1275;22658;-77
2024/02/11 00:12:38;;;;;;;42.70;27.40;;;;;;;8.80;85.00;96629.45;226716;1274;22576;-77
2024/02/11 00:17:43;;;;;;;24.60;12.50;;;;;;;8.90;85.37;96626.98;226745;1273;22547;-78
2024/02/11 00:22:45;;;;;;;18.40;8.70;;;;;;;9.08;85.74;96618.50;226671;1273;22554;-77
2024/02/11 00:27:52;;;;;;;19.50;9.70;;;;;;;9.26;85.63;96617.35;226889;1270;25900;-77
2024/02/11 00:32:56;;;;;;;27.00;14.90;;;;;;;9.38;85.41;96613.59;226698;1275;22569;-77
2024/02/11 00:38:00;;;;;;;29.50;18.90;;;;;;;9.36;84.84;96617.71;226668;1275;22544;-77
2024/02/11 00:43:02;;;;;;;33.20;19.40;;;;;;;9.17;84.36;96617.17;226677;1275;22572;-77
2024/02/11 00:48:06;;;;;;;34.50;19.80;;;;;;;9.00;84.23;96615.52;226709;1275;22570;-77
2024/02/11 00:53:08;;;;;;;32.90;19.70;;;;;;;8.90;84.84;96614.33;226708;1273;22546;-78
2024/02/11 00:58:10;;;;;;;29.50;19.00;;;;;;;8.84;85.04;96611.21;226657;1275;22550;-78
2024/02/11 01:03:15;;;;;;;34.00;20.60;;;;;;;8.81;85.17;96609.55;226961;1273;22538;-77
2024/02/11 01:08:20;;;;;;;36.20;22.10;;;;;;;8.76;85.69;96615.66;226694;1270;25248;-78
2024/02/11 01:13:22;;;;;;;36.40;22.60;;;;;;;8.69;85.35;96607.54;226868;1275;22545;-78
2024/02/11 01:18:24;;;;;;;44.00;25.70;;;;;;;8.60;85.73;96612.52;226706;1270;22539;-77
2024/02/11 01:23:26;;;;;;;39.70;25.10;;;;;;;8.53;85.96;96611.25;226738;1274;22543;-77
2024/02/11 01:28:30;;;;;;;40.10;26.00;;;;;;;8.48;86.04;96610.43;226706;1275;22614;-78
2024/02/11 01:33:32;;;;;;;42.60;26.90;;;;;;;8.44;85.91;96611.52;226868;1273;22561;-77
2024/02/11 01:38:35;;;;;;;35.30;24.90;;;;;;;8.40;86.17;96612.52;226527;1275;22569;-78
2024/02/11 01:43:37;;;;;;;42.10;25.50;;;;;;;8.35;86.77;96605.55;226644;1275;24238;-78
2024/02/11 01:48:40;;;;;;;33.50;21.40;;;;;;;8.32;86.74;96599.48;226709;1275;22570;-78
2024/02/11 01:53:48;;;;;;;28.90;20.30;;;;;;;8.28;86.75;96592.90;226700;1272;22565;-77
2024/02/11 01:58:50;;;;;;;28.90;19.90;;;;;;;8.28;87.02;96593.27;226702;1275;22555;-77
2024/02/11 02:03:54;;;;;;;30.90;19.30;;;;;;;8.29;87.11;96594.72;226716;1273;22939;-77
2024/02/11 02:08:59;;;;;;;31.40;18.80;;;;;;;8.29;87.47;96593.41;226757;1275;22548;-76
2024/02/11 02:14:01;;;;;;;30.80;18.60;;;;;;;8.30;87.50;96592.38;226591;1271;22580;-78
2024/02/11 02:19:06;;;;;;;26.90;18.90;;;;;;;8.32;87.44;96588.66;226544;1275;22657;-77
2024/02/11 02:24:08;;;;;;;27.00;15.80;;;;;;;8.32;87.80;96586.52;226552;1275;22903;-78
2024/02/11 02:29:11;;;;;;;25.00;15.90;;;;;;;8.29;87.37;96581.84;226652;1273;22544;-78
2024/02/11 02:34:13;;;;;;;24.70;16.20;;;;;;;8.27;87.85;96580.30;226751;1273;22551;-78
2024/02/11 02:39:16;;;;;;;24.70;16.90;;;;;;;8.25;87.79;96579.67;226734;1270;22557;-78
2024/02/11 02:44:18;;;;;;;25.30;17.60;;;;;;;8.23;87.87;96574.15;226598;1274;22557;-78
2024/02/11 02:49:20;;;;;;;29.50;16.60;;;;;;;8.20;87.82;96566.91;226699;1270;22999;-78
2024/02/11 02:54:22;;;;;;;29.00;18.20;;;;;;;8.17;88.27;96564.05;226961;1272;24257;-78
2024/02/11 02:59:25;;;;;;;25.70;18.00;;;;;;;8.15;88.17;96560.13;226603;1275;22563;-77
2024/02/11 03:04:28;;;;;;;32.60;19.10;;;;;;;8.12;88.19;96558.23;226727;1270;22539;-77
2024/02/11 03:09:30;;;;;;;27.10;18.20;;;;;;;8.09;88.48;96554.19;226694;1273;24959;-79
2024/02/11 03:14:32;;;;;;;27.80;19.10;;;;;;;8.06;88.41;96550.87;226915;1273;22698;-78
2024/02/11 03:19:34;;;;;;;28.40;18.60;;;;;;;8.06;88.50;96553.59;226929;1271;22579;-78
2024/02/11 03:24:37;;;;;;;28.20;19.40;;;;;;;8.03;88.54;96548.48;226674;1275;22608;-78
2024/02/11 03:29:39;;;;;;;25.30;18.80;;;;;;;8.01;88.58;96541.59;226926;1272;22576;-78
2024/02/11 03:34:42;;;;;;;26.70;18.30;;;;;;;8.00;88.87;96539.73;226733;1273;22544;-78
2024/02/11 03:39:43;;;;;;;32.10;19.90;;;;;;;7.97;88.72;96538.41;226719;1272;22573;-78
2024/02/11 03:44:46;;;;;;;27.10;19.40;;;;;;;7.93;88.65;96533.40;226558;1275;23097;-79
2024/02/11 03:49:49;;;;;;;27.60;19.80;;;;;;;7.90;89.28;96530.44;226686;1270;22548;-78
2024/02/11 03:54:51;;;;;;;30.40;19.80;;;;;;;7.91;89.39;96527.09;226738;1274;22558;-78
2024/02/11 03:59:53;;;;;;;30.30;21.60;;;;;;;7.91;89.22;96524.30;226753;1275;22578;-77
2024/02/11 04:04:55;;;;;;;28.70;21.00;;;;;;;7.90;89.58;96518.61;226631;1275;22563;-78
2024/02/11 04:10:09;;;;;;;29.80;21.80;;;;;;;7.89;89.26;96515.46;226706;1271;22615;-78
2024/02/11 04:15:11;;;;;;;32.10;23.70;;;;;;;7.87;89.50;96509.50;226776;1273;22568;-78
2024/02/11 04:20:23;;;;;;;31.70;22.90;;;;;;;7.86;89.45;96500.96;226646;1275;22544;-78
2024/02/11 04:25:29;;;;;;;30.70;24.10;;;;;;;7.85;89.33;96496.42;226705;1274;22585;-78
2024/02/11 04:30:31;;;;;;;27.10;20.40;;;;;;;7.82;89.38;96489.25;226705;1273;22550;-78
2024/02/11 04:35:35;;;;;;;30.10;22.10;;;;;;;7.80;89.53;96482.57;226899;1273;22559;-78
2024/02/11 04:40:39;;;;;;;28.60;20.50;;;;;;;7.78;89.21;96479.11;226835;1271;22571;-77
2024/02/11 04:45:41;;;;;;;26.50;18.70;;;;;;;7.80;89.66;96478.58;226701;1253;22565;-77
2024/02/11 04:50:46;;;;;;;30.90;19.80;;;;;;;7.83;89.92;96471.17;226622;1274;22546;-77
2024/02/11 04:55:50;;;;;;;25.90;18.50;;;;;;;7.85;90.20;96467.23;226651;1274;22573;-77
2024/02/11 05:00:53;;;;;;;29.10;19.90;;;;;;;7.86;89.91;96461.63;226658;1274;22655;-77
2024/02/11 05:05:55;;;;;;;28.00;19.80;;;;;;;7.88;90.32;96456.99;226704;1269;22574;-79
2024/02/11 05:10:57;;;;;;;25.80;19.00;;;;;;;7.90;90.34;96454.56;226658;1274;22559;-79
2024/02/11 05:16:01;;;;;;;29.00;19.50;;;;;;;7.92;90.31;96456.45;226726;1275;22638;-78
2024/02/11 05:21:04;;;;;;;27.10;18.80;;;;;;;7.95;90.31;96453.00;226684;1269;22557;-79
2024/02/11 05:26:09;;;;;;;25.80;17.60;;;;;;;7.98;90.37;96445.92;226560;1275;22554;-78
2024/02/11 05:31:18;;;;;;;23.50;16.70;;;;;;;8.03;90.56;96445.30;226667;1273;22668;-78
2024/02/11 05:36:21;;;;;;;25.40;16.20;;;;;;;8.08;90.42;96442.16;226670;1252;22589;-78
2024/02/11 05:41:23;;;;;;;19.90;13.80;;;;;;;8.13;90.41;96443.06;226607;1271;22614;-78
2024/02/11 05:46:25;;;;;;;19.60;12.70;;;;;;;8.18;90.28;96442.36;226799;1273;22611;-78
2024/02/11 05:51:27;;;;;;;20.40;13.60;;;;;;;8.22;90.35;96439.17;226658;1273;23092;-78
2024/02/11 05:56:30;;;;;;;23.90;16.20;;;;;;;8.25;90.07;96440.98;226670;1273;22552;-79
2024/02/11 06:01:32;;;;;;;28.10;16.50;;;;;;;8.27;90.42;96435.29;226889;1270;22619;-78
2024/02/11 06:06:34;;;;;;;21.20;14.40;;;;;;;8.28;90.02;96433.65;226686;1273;22714;-78
2024/02/11 06:11:37;;;;;;;24.50;15.10;;;;;;;8.30;90.02;96432.42;226719;1275;22559;-78
2024/02/11 06:16:39;;;;;;;20.70;14.90;;;;;;;8.33;90.07;96435.14;226694;1275;23201;-77
2024/02/11 06:21:41;;;;;;;18.10;14.10;;;;;;;8.36;89.98;96439.14;226720;1275;22677;-79
2024/02/11 06:26:45;;;;;;;21.50;14.50;;;;;;;8.38;89.84;96442.51;226663;1274;22549;-78
2024/02/11 06:31:51;;;;;;;19.80;14.50;;;;;;;8.41;90.05;96449.52;226881;1271;22565;-78
2024/02/11 06:36:53;;;;;;;24.10;15.10;;;;;;;8.45;89.89;96451.13;226742;1273;22578;-78
2024/02/11 06:41:59;;;;;;;22.90;14.90;;;;;;;8.47;89.61;96448.95;226604;1274;25242;-78
2024/02/11 06:47:01;;;;;;;23.10;16.70;;;;;;;8.49;89.48;96455.92;226721;1273;22962;-78
2024/02/11 06:52:10;;;;;;;20.40;15.40;;;;;;;8.51;89.48;96460.71;226538;1259;22601;-77
2024/02/11 06:57:14;;;;;;;23.00;15.70;;;;;;;8.54;89.25;96455.61;226403;1275;22655;-79
2024/02/11 07:02:16;;;;;;;23.00;15.70;;;;;;;8.55;89.33;96458.70;226593;1275;25334;-78
2024/02/11 07:07:18;;;;;;;20.40;15.50;;;;;;;8.56;89.31;96457.19;226511;1275;22619;-77
2024/02/11 07:12:20;;;;;;;22.30;15.30;;;;;;;8.57;89.30;96459.69;226635;1271;22576;-78
2024/02/11 07:17:23;;;;;;;24.90;16.70;;;;;;;8.59;89.57;96453.77;226651;1274;22543;-78
2024/02/11 07:22:26;;;;;;;22.60;15.50;;;;;;;8.61;89.05;96457.65;226781;1271;22610;-78
2024/02/11 07:27:29;;;;;;;21.80;14.50;;;;;;;8.63;89.38;96459.02;226489;1271;23021;-78
2024/02/11 07:32:31;;;;;;;21.40;14.10;;;;;;;8.65;89.01;96464.25;226564;1274;22536;-78
2024/02/11 07:37:34;;;;;;;19.40;14.50;;;;;;;8.65;89.28;96465.16;226525;1275;23019;-78
2024/02/11 07:42:37;;;;;;;22.60;14.60;;;;;;;8.67;89.17;96463.11;226706;1273;22817;-80
2024/02/11 07:47:44;;;;;;;20.20;14.30;;;;;;;8.71;89.13;96457.91;226564;1274;22585;-78
2024/02/11 07:52:47;;;;;;;21.60;14.20;;;;;;;8.75;88.96;96457.90;226704;1271;22576;-78
2024/02/11 07:57:50;;;;;;;18.50;12.50;;;;;;;8.80;89.18;96459.08;226690;1273;22538;-77
2024/02/11 08:02:55;;;;;;;17.90;12.90;;;;;;;8.83;88.77;96464.09;226779;1275;22558;-79
2024/02/11 08:07:57;;;;;;;23.80;15.70;;;;;;;8.85;88.78;96463.09;226688;1273;22559;-79
2024/02/11 08:12:59;;;;;;;22.20;15.40;;;;;;;8.87;88.89;96456.82;226562;1274;22693;-78
2024/02/11 08:18:04;;;;;;;19.20;13.60;;;;;;;8.88;88.60;96459.10;226784;1272;22553;-78
2024/02/11 08:23:08;;;;;;;22.80;15.80;;;;;;;8.92;88.72;96456.98;226537;1275;22543;-78
2024/02/11 08:28:11;;;;;;;25.80;16.40;;;;;;;8.95;88.63;96459.90;226821;1271;22547;-78
2024/02/11 08:33:13;;;;;;;22.20;16.00;;;;;;;8.98;88.58;96456.80;226400;1275;22540;-79
2024/02/11 08:38:16;;;;;;;20.70;14.60;;;;;;;9.01;88.68;96451.23;226666;1271;22561;-79
2024/02/11 08:43:23;;;;;;;19.50;15.40;;;;;;;9.08;88.52;96443.61;226451;1275;22540;-78
2024/02/11 08:48:25;;;;;;;19.30;14.00;;;;;;;9.20;88.68;96445.52;226802;1271;22557;-78
2024/02/11 08:53:28;;;;;;;24.60;16.20;;;;;;;9.34;88.70;96451.66;226581;1274;22547;-78
2024/02/11 08:58:32;;;;;;;22.30;15.40;;;;;;;9.48;88.19;96457.81;226684;1273;24273;-78
2024/02/11 09:03:34;;;;;;;25.60;16.50;;;;;;;9.62;88.23;96459.25;226667;1273;22541;-79
2024/02/11 09:08:36;;;;;;;26.00;17.00;;;;;;;9.72;87.83;96465.00;226721;1273;22552;-78
2024/02/11 09:13:43;;;;;;;20.90;14.70;;;;;;;9.78;87.73;96463.10;226729;1274;22581;-78
2024/02/11 09:18:47;;;;;;;20.30;14.30;;;;;;;9.85;87.67;96467.05;226305;1275;288654;-78
2024/02/11 09:23:49;;;;;;;19.50;14.20;;;;;;;9.91;87.48;96460.20;226808;1275;22547;-77
2024/02/11 09:28:53;;;;;;;24.30;16.30;;;;;;;10.00;87.43;96458.20;226446;1275;22644;-79
2024/02/11 09:33:55;;;;;;;29.70;16.90;;;;;;;10.07;87.14;96457.42;226541;1275;22657;-78
2024/02/11 09:38:58;;;;;;;23.30;15.70;;;;;;;10.12;86.92;96456.21;226695;1273;22547;-79
2024/02/11 09:44:02;;;;;;;26.90;17.40;;;;;;;10.12;86.67;96452.52;226501;1274;22619;-79
2024/02/11 09:49:10;;;;;;;25.90;17.20;;;;;;;10.07;86.49;96452.73;226497;1275;22543;-79
2024/02/11 09:54:13;;;;;;;26.50;17.80;;;;;;;10.02;86.34;96449.38;226531;1274;22549;-78
2024/02/11 09:59:16;;;;;;;25.50;18.70;;;;;;;9.96;86.43;96449.92;226740;1272;22543;-77
2024/02/11 10:04:25;;;;;;;24.20;18.20;;;;;;;9.97;86.61;96445.96;226518;1271;22517;-78
2024/02/11 10:09:27;;;;;;;23.10;17.00;;;;;;;10.00;86.57;96441.42;226515;1275;22512;-78
2024/02/11 10:14:31;;;;;;;26.70;17.30;;;;;;;10.04;86.73;96437.92;226597;1275;22562;-77
2024/02/11 10:19:33;;;;;;;24.70;17.60;;;;;;;10.05;86.59;96439.08;226242;1275;22557;-78
2024/02/11 10:24:37;;;;;;;24.50;18.80;;;;;;;10.04;86.32;96438.65;226488;1274;22542;-78
2024/02/11 10:29:39;;;;;;;27.20;20.70;;;;;;;10.02;86.49;96437.93;226421;1275;22590;-79
2024/02/11 10:34:42;;;;;;;28.80;21.40;;;;;;;10.03;86.64;96438.11;226462;1275;22573;-77
2024/02/11 10:39:44;;;;;;;24.80;20.30;;;;;;;10.03;86.67;96437.38;226714;1275;22554;-79
2024/02/11 10:44:49;;;;;;;28.30;20.00;;;;;;;10.04;86.71;96435.80;226501;1274;22613;-78
2024/02/11 10:49:51;;;;;;;28.60;20.90;;;;;;;10.08;86.85;96436.98;226485;1275;22536;-78
2024/02/11 10:54:56;;;;;;;25.80;18.90;;;;;;;10.07;86.74;96437.65;226486;1275;22563;-79
2024/02/11 11:00:00;;;;;;;23.70;17.80;;;;;;;10.09;86.80;96439.46;226714;1271;24583;-77
2024/02/11 11:05:09;;;;;;;24.10;17.10;;;;;;;10.13;86.70;96434.96;226426;1275;25425;-78
2024/02/11 11:10:12;;;;;;;22.60;16.60;;;;;;;10.16;86.80;96439.14;226505;1271;22552;-79
2024/02/11 11:15:23;;;;;;;22.60;16.90;;;;;;;10.21;86.82;96434.39;226449;1275;22550;-78
2024/02/11 11:20:26;;;;;;;24.80;17.40;;;;;;;10.22;86.48;96439.95;226656;1273;22547;-78
2024/02/11 11:25:31;;;;;;;21.80;16.60;;;;;;;10.24;86.58;96438.27;226454;1272;22568;-77
2024/02/11 11:30:34;;;;;;;23.10;16.60;;;;;;;10.24;86.48;96438.05;226557;1275;22571;-78
2024/02/11 11:35:37;;;;;;;22.50;16.20;;;;;;;10.22;86.43;96435.46;226473;1274;22554;-79
2024/02/11 11:40:40;;;;;;;19.10;14.70;;;;;;;10.19;86.55;96433.29;226537;1274;22550;-78
2024/02/11 11:45:55;;;;;;;20.40;15.60;;;;;;;10.15;86.55;96432.52;226703;1266;22561;-79
2024/02/11 11:50:59;;;;;;;24.90;17.40;;;;;;;10.14;86.59;96433.23;226727;1274;22554;-78
2024/02/11 11:56:03;;;;;;;25.70;17.60;;;;;;;10.12;86.93;96434.80;226532;1275;22534;-79
2024/02/11 12:01:07;;;;;;;22.70;16.70;;;;;;;10.12;86.90;96432.27;226685;1272;22544;-78
2024/02/11 12:06:11;;;;;;;21.30;15.70;;;;;;;10.15;86.72;96433.77;226492;1274;24204;-79
2024/02/11 12:11:14;;;;;;;21.70;16.20;;;;;;;10.15;86.65;96428.20;226467;1272;22593;-78
2024/02/11 12:16:18;;;;;;;22.00;16.30;;;;;;;10.17;86.96;96424.05;226287;1275;23286;-78
2024/02/11 12:21:20;;;;;;;17.40;13.70;;;;;;;10.18;86.92;96421.62;226511;1275;24980;-79
2024/02/11 12:26:23;;;;;;;21.10;14.70;;;;;;;10.18;86.70;96414.92;226472;1275;22578;-78
2024/02/11 12:31:33;;;;;;;20.10;15.80;;;;;;;10.17;86.86;96414.20;226526;1275;22542;-78
2024/02/11 12:36:37;;;;;;;21.30;14.80;;;;;;;10.17;86.92;96411.56;226537;1275;22886;-78
2024/02/11 12:41:40;;;;;;;21.90;16.40;;;;;;;10.19;87.13;96406.96;226656;1274;22528;-78
2024/02/11 12:46:44;;;;;;;22.40;17.00;;;;;;;10.18;86.82;96404.29;226454;1275;22541;-79
2024/02/11 12:51:46;;;;;;;19.40;16.10;;;;;;;10.17;87.04;96395.04;226681;1272;22552;-78
2024/02/11 12:56:48;;;;;;;22.10;16.70;;;;;;;10.18;86.87;96389.46;226491;1275;22556;-78
2024/02/11 13:01:51;;;;;;;20.50;15.40;;;;;;;10.18;87.00;96389.22;226737;1271;25950;-79
2024/02/11 13:06:53;;;;;;;20.60;15.40;;;;;;;10.18;86.94;96388.94;226498;1274;22587;-79
2024/02/11 13:11:55;;;;;;;20.80;15.40;;;;;;;10.19;87.01;96391.56;226732;1253;24416;-79
2024/02/11 13:16:59;;;;;;;16.50;14.00;;;;;;;10.18;86.83;96388.30;226667;1275;23628;-77
2024/02/11 13:22:02;;;;;;;17.90;13.30;;;;;;;10.12;86.73;96389.36;226624;1273;25348;-78
2024/02/11 13:27:04;;;;;;;16.00;13.80;;;;;;;10.08;86.86;96392.70;226558;1268;22554;-79
2024/02/11 13:32:08;;;;;;;22.40;15.20;;;;;;;10.06;87.04;96396.31;226563;1274;22550;-79
2024/02/11 13:37:10;;;;;;;17.90;13.70;;;;;;;10.05;87.08;96399.94;226484;1275;25323;-79
2024/02/11 13:42:14;;;;;;;18.80;13.90;;;;;;;10.03;87.02;96400.16;226481;1275;22575;-78
2024/02/11 13:47:16;;;;;;;18.90;13.90;;;;;;;10.00;87.19;96400.80;226705;1275;23768;-78
2024/02/11 13:52:19;;;;;;;19.70;14.50;;;;;;;9.95;86.88;96400.48;226471;1275;22556;-79
2024/02/11 13:57:21;;;;;;;19.30;13.90;;;;;;;9.92;87.19;96399.02;226641;1273;22694;-79
2024/02/11 14:02:40;;;;;;;20.10;15.30;;;;;;;9.87;86.95;96399.47;226645;1273;25365;-80
2024/02/11 14:07:44;;;;;;;21.80;15.20;;;;;;;9.85;87.14;96398.11;226474;1272;22552;-78
2024/02/11 14:12:48;;;;;;;20.50;14.90;;;;;;;9.83;87.27;96404.36;226661;1253;23297;-79
2024/02/11 14:17:51;;;;;;;20.70;15.10;;;;;;;9.79;87.38;96400.66;226487;1275;24228;-79
2024/02/11 14:22:55;;;;;;;20.80;16.10;;;;;;;9.75;87.11;96400.77;226435;1275;22558;-79
2024/02/11 14:27:58;;;;;;;21.00;15.80;;;;;;;9.71;87.36;96399.91;226496;1275;22546;-80
2024/02/11 14:33:01;;;;;;;21.50;16.60;;;;;;;9.68;87.61;96403.02;226432;1275;22564;-80
2024/02/11 14:38:06;;;;;;;24.20;18.40;;;;;;;9.65;87.75;96403.77;226432;1275;22546;-80
2024/02/11 14:43:09;;;;;;;28.20;20.10;;;;;;;9.62;87.81;96407.48;226512;1266;24217;-79
2024/02/11 14:48:11;;;;;;;25.30;19.80;;;;;;;9.59;87.80;96406.11;226792;1272;22540;-79
2024/02/11 14:53:14;;;;;;;24.70;18.70;;;;;;;9.55;87.95;96409.79;226719;1272;22608;-79
2024/02/11 14:58:22;;;;;;;23.60;18.40;;;;;;;9.53;87.97;96415.19;226595;1274;22564;-80
2024/02/11 15:03:25;;;;;;;22.90;17.60;;;;;;;9.49;87.93;96419.04;226679;1275;22546;-80
2024/02/11 15:08:31;;;;;;;23.30;17.50;;;;;;;9.47;88.37;96421.23;226678;1273;25296;-79
2024/02/11 15:13:37;;;;;;;24.50;19.00;;;;;;;9.47;88.38;96424.44;226468;1275;22543;-80
2024/02/11 15:18:57;;;;;;;30.10;21.20;;;;;;;9.46;88.44;96428.36;226089;1277;22927;-80
2024/02/11 15:23:59;;;;;;;28.70;20.40;;;;;;;9.44;88.22;96431.96;226025;1278;22568;-79
2024/02/11 15:29:03;;;;;;;27.00;20.60;;;;;;;9.43;88.68;96429.95;226140;1278;22561;-79
2024/02/11 15:34:06;;;;;;;30.00;21.40;;;;;;;9.38;88.58;96430.06;226135;1278;22586;-79
2024/02/11 15:39:10;;;;;;;29.10;22.50;;;;;;;9.35;88.75;96430.27;225962;1279;22539;-80
2024/02/11 15:44:12;;;;;;;31.00;24.90;;;;;;;9.32;88.89;96432.14;226590;1275;23313;-80
2024/02/11 15:49:15;;;;;;;33.90;25.20;;;;;;;9.30;88.84;96432.05;226709;1274;22555;-80
2024/02/11 15:54:17;;;;;;;32.20;24.80;;;;;;;9.29;89.03;96441.56;226565;1274;22542;-81
2024/02/11 15:59:19;;;;;;;36.50;29.60;;;;;;;9.25;89.20;96445.39;226614;1274;23487;-80
2024/02/11 16:04:24;;;;;;;30.10;26.60;;;;;;;9.25;89.44;96447.64;226665;1273;24259;-80
2024/02/11 16:09:28;;;;;;;36.90;26.70;;;;;;;9.23;89.22;96449.50;226597;1275;22558;-80
2024/02/11 16:14:33;;;;;;;38.40;29.30;;;;;;;9.18;89.17;96453.87;226731;1275;22507;-80
2024/02/11 16:19:38;;;;;;;41.00;28.60;;;;;;;9.15;89.54;96457.45;226785;1271;22566;-79
2024/02/11 16:24:42;;;;;;;37.60;27.40;;;;;;;9.14;89.67;96462.18;226585;1275;22554;-78
2024/02/11 16:29:44;;;;;;;42.10;29.80;;;;;;;9.13;89.41;96469.05;226824;1260;22728;-79
2024/02/11 16:34:51;;;;;;;38.90;27.70;;;;;;;9.14;89.73;96473.70;226444;1275;22560;-79
2024/02/11 16:39:53;;;;;;;33.10;23.00;;;;;;;9.15;89.78;96475.30;226505;1275;22550;-80
2024/02/11 16:44:58;;;;;;;27.70;20.60;;;;;;;9.14;89.67;96477.76;226720;1275;22532;-80
2024/02/11 16:50:01;;;;;;;25.00;18.40;;;;;;;9.14;89.89;96481.60;226687;1273;23505;-79
2024/02/11 16:55:05;;;;;;;26.20;19.70;;;;;;;9.13;89.79;96485.06;226614;1275;24478;-79
2024/02/11 17:00:13;;;;;;;26.20;19.20;;;;;;;9.14;90.36;96495.21;226622;1275;24184;-78
2024/02/11 17:05:17;;;;;;;29.10;21.20;;;;;;;9.15;90.08;96497.02;226865;1267;23157;-80
2024/02/11 17:10:20;;;;;;;27.20;20.70;;;;;;;9.14;90.08;96501.54;226594;1275;24801;-79
2024/02/11 17:15:26;;;;;;;26.90;21.90;;;;;;;9.13;90.45;96506.02;226646;1273;22554;-79
2024/02/11 17:20:29;;;;;;;26.70;21.90;;;;;;;9.11;90.10;96510.27;226803;1275;22588;-79
2024/02/11 17:25:37;;;;;;;26.30;21.60;;;;;;;9.09;90.24;96512.65;226646;1270;22581;-79
2024/02/11 17:30:40;;;;;;;29.10;21.60;;;;;;;9.09;90.25;96519.39;226703;1275;22544;-79
2024/02/11 17:35:43;;;;;;;27.50;20.70;;;;;;;9.10;90.78;96524.14;226678;1274;22548;-79
2024/02/11 17:40:48;;;;;;;27.60;21.00;;;;;;;9.09;90.47;96520.96;226610;1275;24284;-80
2024/02/11 17:45:52;;;;;;;29.30;22.80;;;;;;;9.09;90.83;96525.75;226695;1275;22557;-80
2024/02/11 17:50:54;;;;;;;29.20;23.20;;;;;;;9.08;90.69;96527.27;226708;1274;22626;-80
2024/02/11 17:55:56;;;;;;;31.00;23.40;;;;;;;9.08;90.77;96533.63;226610;1275;22542;-79
2024/02/11 18:00:59;;;;;;;34.70;25.80;;;;;;;9.08;90.89;96534.10;226620;1275;25421;-79
2024/02/11 18:06:05;;;;;;;33.40;27.00;;;;;;;9.08;90.96;96537.64;226604;1273;22971;-79
2024/02/11 18:11:10;;;;;;;37.30;27.20;;;;;;;9.08;90.77;96540.85;226763;1270;23128;-78
2024/02/11 18:16:13;;;;;;;37.70;27.90;;;;;;;9.07;90.70;96541.88;226898;1270;24352;-79
2024/02/11 18:21:15;;;;;;;36.70;28.50;;;;;;;9.05;90.87;96544.64;226605;1274;22548;-79
2024/02/11 18:26:18;;;;;;;36.60;28.70;;;;;;;9.03;91.12;96545.87;226759;1273;22566;-80
2024/02/11 18:31:22;;;;;;;43.10;30.40;;;;;;;9.01;91.08;96548.25;226670;1273;22546;-80
2024/02/11 18:36:24;;;;;;;41.60;30.40;;;;;;;8.99;91.02;96551.53;226724;1275;22662;-78
2024/02/11 18:41:26;;;;;;;43.20;31.20;;;;;;;8.97;91.24;96554.97;226630;1275;22553;-79
2024/02/11 18:46:29;;;;;;;44.80;32.70;;;;;;;8.96;91.26;96554.42;226636;1269;22696;-79
2024/02/11 18:51:35;;;;;;;44.90;32.20;;;;;;;8.94;90.88;96559.52;226853;1271;22547;-78
2024/02/11 18:56:39;;;;;;;46.10;32.40;;;;;;;8.91;91.03;96561.16;226537;1275;24298;-79
2024/02/11 19:01:42;;;;;;;46.10;32.10;;;;;;;8.89;91.14;96561.75;226667;1275;22547;-79
2024/02/11 19:06:47;;;;;;;48.80;33.70;;;;;;;8.86;91.23;96565.43;226674;1275;22547;-79
2024/02/11 19:11:50;;;;;;;48.90;36.00;;;;;;;8.84;91.39;96566.23;226448;1275;22555;-79
2024/02/11 19:16:52;;;;;;;46.00;32.30;;;;;;;8.82;91.48;96567.25;226642;1267;22553;-78
2024/02/11 19:21:55;;;;;;;45.00;32.50;;;;;;;8.82;91.47;96571.30;226582;1275;22542;-78
2024/02/11 19:27:12;;;;;;;41.90;30.30;;;;;;;8.81;91.40;96579.17;226679;1275;23343;-79
2024/02/11 19:32:14;;;;;;;40.80;30.20;;;;;;;8.77;91.40;96579.30;226639;1274;22542;-79
2024/02/11 19:37:17;;;;;;;38.30;28.40;;;;;;;8.72;91.36;96578.25;226595;1274;22579;-79
2024/02/11 19:42:23;;;;;;;38.80;28.80;;;;;;;8.68;91.19;96584.15;226527;1273;22559;-79
2024/02/11 19:47:26;;;;;;;38.70;27.30;;;;;;;8.64;91.71;96587.80;226663;1274;22550;-79
2024/02/11 19:52:28;;;;;;;33.10;25.70;;;;;;;8.61;91.65;96593.05;226463;1275;23038;-78
2024/02/11 19:57:30;;;;;;;29.80;23.30;;;;;;;8.58;91.80;96594.25;226737;1273;22557;-77
2024/02/11 20:02:33;;;;;;;28.30;21.10;;;;;;;8.55;92.09;96602.92;226525;1274;22557;-79
2024/02/11 20:07:41;;;;;;;27.50;19.10;;;;;;;8.55;91.99;96606.65;226734;1271;22562;-79
2024/02/11 20:12:45;;;;;;;24.40;19.00;;;;;;;8.56;92.43;96612.84;226978;1271;22570;-80
2024/02/11 20:17:48;;;;;;;27.50;20.30;;;;;;;8.57;92.34;96616.70;226939;1275;22664;-80
2024/02/11 20:22:51;;;;;;;26.50;20.40;;;;;;;8.60;92.53;96620.09;226736;1274;22580;-80
2024/02/11 20:27:54;;;;;;;27.80;19.60;;;;;;;8.62;92.53;96624.17;226477;1275;22558;-80
2024/02/11 20:32:56;;;;;;;25.60;19.90;;;;;;;8.64;92.54;96627.95;226687;1274;22567;-80
2024/02/11 20:38:01;;;;;;;26.20;20.00;;;;;;;8.66;92.66;96633.33;226625;1275;22543;-79
2024/02/11 20:43:05;;;;;;;23.70;19.00;;;;;;;8.69;92.40;96638.73;226917;1270;22585;-81
2024/02/11 20:48:13;;;;;;;24.50;19.70;;;;;;;8.70;92.54;96649.08;226730;1273;22543;-79
2024/02/11 20:53:17;;;;;;;21.80;16.20;;;;;;;8.69;92.52;96650.99;226658;1270;22546;-80
2024/02/11 20:58:20;;;;;;;20.40;15.20;;;;;;;8.69;92.54;96655.84;226663;1270;22551;-79
2024/02/11 21:03:23;;;;;;;18.00;13.90;;;;;;;8.70;92.73;96663.23;226599;1275;22759;-79
2024/02/11 21:08:26;;;;;;;15.80;13.00;;;;;;;8.71;92.99;96670.12;226726;1273;22552;-79
2024/02/11 21:13:29;;;;;;;18.60;13.40;;;;;;;8.71;92.83;96671.90;226642;1274;23014;-79
2024/02/11 21:18:33;;;;;;;14.40;12.00;;;;;;;8.70;92.82;96679.80;226590;1271;204467;-79
2024/02/11 21:23:40;;;;;;;14.70;12.50;;;;;;;8.70;93.03;96677.50;226658;1273;22646;-79
2024/02/11 21:28:51;;;;;;;12.50;11.10;;;;;;;8.68;93.02;96682.51;226545;1275;22557;-80
2024/02/11 21:33:54;;;;;;;12.20;10.30;;;;;;;8.65;92.56;96689.00;226759;1273;22545;-78
2024/02/11 21:38:57;;;;;;;10.30;9.00;;;;;;;8.62;92.73;96697.02;226700;1275;25419;-79
2024/02/11 21:43:59;;;;;;;10.10;8.60;;;;;;;8.59;92.93;96703.45;226709;1270;24302;-79
2024/02/11 21:49:02;;;;;;;8.20;7.40;;;;;;;8.56;92.52;96712.00;226672;1271;22631;-79
2024/02/11 21:54:05;;;;;;;9.20;6.90;;;;;;;8.50;92.29;96717.58;226656;1275;22490;-80
2024/02/11 21:59:07;;;;;;;7.90;7.10;;;;;;;8.45;92.44;96730.40;226676;1274;25412;-79
2024/02/11 22:04:12;;;;;;;7.90;7.10;;;;;;;8.40;92.59;96736.77;226656;1273;22550;-79
2024/02/11 22:09:14;;;;;;;8.00;6.50;;;;;;;8.34;92.16;96738.69;226756;1275;22536;-79
2024/02/11 22:14:18;;;;;;;8.80;7.00;;;;;;;8.26;92.06;96746.80;226612;1275;22592;-79
2024/02/11 22:19:20;;;;;;;8.40;7.40;;;;;;;8.18;92.26;96756.58;226622;1275;22584;-79
2024/02/11 22:24:23;;;;;;;8.70;7.40;;;;;;;8.09;92.34;96761.75;226691;1275;22552;-79
2024/02/11 22:29:26;;;;;;;9.50;8.20;;;;;;;8.01;92.17;96770.10;226874;1269;22612;-79
2024/02/11 22:34:30;;;;;;;8.20;7.40;;;;;;;7.94;92.45;96771.23;226668;1273;22542;-78
2024/02/11 22:39:33;;;;;;;9.30;8.30;;;;;;;7.90;92.08;96775.84;226670;1275;24223;-79
2024/02/11 22:44:36;;;;;;;9.40;8.50;;;;;;;7.87;92.37;96782.36;226723;1275;22570;-79
2024/02/11 22:49:42;;;;;;;8.80;8.00;;;;;;;7.82;92.12;96784.86;226663;1273;22569;-79
2024/02/11 22:54:45;;;;;;;9.60;8.70;;;;;;;7.76;92.20;96792.30;226814;1275;26043;-80
2024/02/11 22:59:47;;;;;;;9.50;8.60;;;;;;;7.70;92.32;96800.82;226444;1275;24842;-78
2024/02/11 23:04:49;;;;;;;9.80;8.80;;;;;;;7.64;92.51;96802.30;226590;1275;22578;-78
2024/02/11 23:09:51;;;;;;;9.00;8.00;;;;;;;7.61;92.20;96808.67;226597;1274;22542;-80
2024/02/11 23:14:54;;;;;;;8.00;7.00;;;;;;;7.57;92.27;96815.80;226684;1270;25290;-79